METAR Data
IDs: Format: Raw Decoded Include TAF

Data at: 1155 UTC 17 Dec 2018

METAR for:KMNN (Marion Muni, OH, US)
Text:KMNN 171153Z AUTO 29008KT 6SM BR CLR 01/M01 A3003 RMK AO2 SLP181 T00061011 10022 20006 53011
Temperature: 0.6°C ( 33°F)
Dewpoint: -1.1°C ( 30°F) [RH = 88%]
Pressure (altimeter):30.03 inches Hg (1017.0 mb) [Sea level pressure: 1018.1 mb]
Winds:from the WNW (290 degrees) at 9 MPH (8 knots; 4.1 m/s)
Visibility: 6 sm ( 10 km)
Ceiling:at least 12,000 feet AGL
Clouds:sky clear below 12,000 feet AGL
Weather:BR (mist)
QC Flag:automated observation with no human augmentation